Strona główna
METAR-TAF:

METAR-TAF

Lotnisko :

Morrisville-Stowe State Airport

Morrisville, Vermont, Stany Zjednoczone

Szerokość geograficzna: 44-32-10N, Długość geograficzna: 072-36-58W, wysokość: 223 m

Aktualna obserwacja pogody

Raport powstał 24 minut temu, godzina 01:54 UTC
Cisza
Temperatura -2°C
Wilgotność 80%
Ciśnienie 1015 hPa
Widzialność: 16.1 km
Rozproszone chmury na wysokości 4100 ft
Zachmurzenie całkowite na wysokości 5000 ft

METAR: KMVL 170154Z AUTO 00000KT 10SM SCT041 OVC050 M02/M05 A2997 RMK AO2 SLP160 T10221050

czas: 21:18 (02:18 UTC)


TAF: brakujący

Obserwacja i prognoza pogody dla ponad 4000 lotnisk (raport METAR i TAF).

Dostępne stacje oznaczono żółtymi i czerwonymi punktami na mapie.

Najedź kursorem aby zobaczyć nazwę stacji.

Kliknij aby zobaczyć obserwacje i prognozy pogody.

Aby zmienić mapę: kliknij na zielony przycisk z czarnym krzyżykiem, aby powiększyć; na zielony przycisk z myślnikiem, aby pomniejszyć; na zielone strzałki, aby przejść do map sąsiednich.


METAR-TAF: